sensor_id;sensor_type;location;lat;lon;timestamp;P1;durP1;ratioP1;P2;durP2;ratioP2
15063;SDS011;7631;52.088;5.088;2024-01-10T00:00:08;3.03;;;2.23;;
15063;SDS011;7631;52.088;5.088;2024-01-10T00:02:34;3.73;;;2.00;;
15063;SDS011;7631;52.088;5.088;2024-01-10T00:04:59;2.63;;;1.87;;
15063;SDS011;7631;52.088;5.088;2024-01-10T00:07:24;2.93;;;2.07;;
15063;SDS011;7631;52.088;5.088;2024-01-10T00:09:49;3.77;;;2.13;;
15063;SDS011;7631;52.088;5.088;2024-01-10T00:12:15;4.10;;;2.07;;
15063;SDS011;7631;52.088;5.088;2024-01-10T00:14:40;2.70;;;1.93;;
15063;SDS011;7631;52.088;5.088;2024-01-10T00:17:05;1.97;;;1.77;;
15063;SDS011;7631;52.088;5.088;2024-01-10T00:19:30;4.30;;;2.30;;
15063;SDS011;7631;52.088;5.088;2024-01-10T00:21:55;3.87;;;1.90;;
15063;SDS011;7631;52.088;5.088;2024-01-10T00:24:21;3.87;;;1.87;;
15063;SDS011;7631;52.088;5.088;2024-01-10T00:26:46;3.33;;;2.30;;
15063;SDS011;7631;52.088;5.088;2024-01-10T00:29:11;2.77;;;1.90;;
15063;SDS011;7631;52.088;5.088;2024-01-10T00:31:36;3.07;;;2.13;;
15063;SDS011;7631;52.088;5.088;2024-01-10T00:34:02;4.33;;;2.30;;
15063;SDS011;7631;52.088;5.088;2024-01-10T00:36:27;4.00;;;2.70;;
15063;SDS011;7631;52.088;5.088;2024-01-10T00:38:52;3.53;;;2.40;;
15063;SDS011;7631;52.088;5.088;2024-01-10T00:41:17;3.23;;;2.30;;
15063;SDS011;7631;52.088;5.088;2024-01-10T00:43:43;4.03;;;2.40;;
15063;SDS011;7631;52.088;5.088;2024-01-10T00:46:08;3.33;;;2.40;;
15063;SDS011;7631;52.088;5.088;2024-01-10T00:48:33;4.40;;;2.30;;
15063;SDS011;7631;52.088;5.088;2024-01-10T00:50:59;3.13;;;2.33;;
15063;SDS011;7631;52.088;5.088;2024-01-10T00:53:24;3.50;;;1.93;;
15063;SDS011;7631;52.088;5.088;2024-01-10T00:55:49;3.73;;;2.63;;
15063;SDS011;7631;52.088;5.088;2024-01-10T00:58:15;3.43;;;2.40;;
15063;SDS011;7631;52.088;5.088;2024-01-10T01:00:40;3.17;;;2.43;;
15063;SDS011;7631;52.088;5.088;2024-01-10T01:03:06;3.40;;;2.33;;
15063;SDS011;7631;52.088;5.088;2024-01-10T01:05:31;2.93;;;2.20;;
15063;SDS011;7631;52.088;5.088;2024-01-10T01:07:56;3.43;;;2.53;;
15063;SDS011;7631;52.088;5.088;2024-01-10T01:10:21;3.83;;;2.63;;
15063;SDS011;7631;52.088;5.088;2024-01-10T01:12:47;3.40;;;2.20;;
15063;SDS011;7631;52.088;5.088;2024-01-10T01:15:12;4.63;;;2.43;;
15063;SDS011;7631;52.088;5.088;2024-01-10T01:17:37;3.60;;;2.40;;
15063;SDS011;7631;52.088;5.088;2024-01-10T01:20:03;3.57;;;2.40;;
15063;SDS011;7631;52.088;5.088;2024-01-10T01:22:29;4.03;;;2.40;;
15063;SDS011;7631;52.088;5.088;2024-01-10T01:24:56;3.73;;;2.47;;
15063;SDS011;7631;52.088;5.088;2024-01-10T01:27:21;3.17;;;2.10;;
15063;SDS011;7631;52.088;5.088;2024-01-10T01:29:46;4.03;;;2.23;;
15063;SDS011;7631;52.088;5.088;2024-01-10T01:32:11;3.20;;;2.40;;
15063;SDS011;7631;52.088;5.088;2024-01-10T01:34:37;3.70;;;2.40;;
15063;SDS011;7631;52.088;5.088;2024-01-10T01:37:02;4.33;;;2.77;;
15063;SDS011;7631;52.088;5.088;2024-01-10T01:39:27;4.20;;;2.63;;
15063;SDS011;7631;52.088;5.088;2024-01-10T01:41:52;3.87;;;2.17;;
15063;SDS011;7631;52.088;5.088;2024-01-10T01:44:18;5.07;;;2.77;;
15063;SDS011;7631;52.088;5.088;2024-01-10T01:46:43;3.63;;;2.40;;
15063;SDS011;7631;52.088;5.088;2024-01-10T01:49:10;4.13;;;3.07;;
15063;SDS011;7631;52.088;5.088;2024-01-10T01:51:35;3.97;;;2.30;;
15063;SDS011;7631;52.088;5.088;2024-01-10T01:54:02;3.47;;;2.53;;
15063;SDS011;7631;52.088;5.088;2024-01-10T01:56:27;3.63;;;2.20;;
15063;SDS011;7631;52.088;5.088;2024-01-10T01:58:53;3.10;;;2.27;;
15063;SDS011;7631;52.088;5.088;2024-01-10T02:01:19;4.43;;;2.90;;
15063;SDS011;7631;52.088;5.088;2024-01-10T02:03:47;3.43;;;2.60;;
15063;SDS011;7631;52.088;5.088;2024-01-10T02:06:12;4.23;;;2.50;;
15063;SDS011;7631;52.088;5.088;2024-01-10T02:08:38;4.27;;;2.93;;
15063;SDS011;7631;52.088;5.088;2024-01-10T02:11:03;4.27;;;2.73;;
15063;SDS011;7631;52.088;5.088;2024-01-10T02:13:29;3.73;;;2.60;;
15063;SDS011;7631;52.088;5.088;2024-01-10T02:15:55;3.97;;;2.70;;
15063;SDS011;7631;52.088;5.088;2024-01-10T02:18:20;4.37;;;2.60;;
15063;SDS011;7631;52.088;5.088;2024-01-10T02:20:45;3.63;;;2.40;;
15063;SDS011;7631;52.088;5.088;2024-01-10T02:23:12;4.60;;;2.83;;
15063;SDS011;7631;52.088;5.088;2024-01-10T02:25:37;4.30;;;2.80;;
15063;SDS011;7631;52.088;5.088;2024-01-10T02:28:03;5.30;;;2.53;;
15063;SDS011;7631;52.088;5.088;2024-01-10T02:30:29;3.97;;;2.77;;
15063;SDS011;7631;52.088;5.088;2024-01-10T02:32:54;4.00;;;2.77;;
15063;SDS011;7631;52.088;5.088;2024-01-10T02:35:19;4.23;;;2.80;;
15063;SDS011;7631;52.088;5.088;2024-01-10T02:37:44;3.90;;;2.73;;
15063;SDS011;7631;52.088;5.088;2024-01-10T02:40:10;4.77;;;2.67;;
15063;SDS011;7631;52.088;5.088;2024-01-10T02:42:35;4.13;;;2.33;;
15063;SDS011;7631;52.088;5.088;2024-01-10T02:45:01;3.70;;;2.67;;
15063;SDS011;7631;52.088;5.088;2024-01-10T02:47:26;5.67;;;3.00;;
15063;SDS011;7631;52.088;5.088;2024-01-10T02:49:53;4.23;;;2.60;;
15063;SDS011;7631;52.088;5.088;2024-01-10T02:52:18;4.67;;;2.80;;
15063;SDS011;7631;52.088;5.088;2024-01-10T02:54:44;4.93;;;2.87;;
15063;SDS011;7631;52.088;5.088;2024-01-10T02:57:10;4.07;;;2.77;;
15063;SDS011;7631;52.088;5.088;2024-01-10T02:59:35;4.10;;;2.73;;
15063;SDS011;7631;52.088;5.088;2024-01-10T03:02:00;5.53;;;3.00;;
15063;SDS011;7631;52.088;5.088;2024-01-10T03:04:25;4.40;;;2.70;;
15063;SDS011;7631;52.088;5.088;2024-01-10T03:06:50;3.63;;;2.73;;
15063;SDS011;7631;52.088;5.088;2024-01-10T03:09:16;4.80;;;2.93;;
15063;SDS011;7631;52.088;5.088;2024-01-10T03:11:41;4.83;;;2.80;;
15063;SDS011;7631;52.088;5.088;2024-01-10T03:14:10;5.10;;;2.93;;
15063;SDS011;7631;52.088;5.088;2024-01-10T03:16:35;5.00;;;3.40;;
15063;SDS011;7631;52.088;5.088;2024-01-10T03:19:01;3.73;;;2.60;;
15063;SDS011;7631;52.088;5.088;2024-01-10T03:21:26;3.43;;;2.63;;
15063;SDS011;7631;52.088;5.088;2024-01-10T03:23:55;4.00;;;2.77;;
15063;SDS011;7631;52.088;5.088;2024-01-10T03:26:20;4.93;;;3.00;;
15063;SDS011;7631;52.088;5.088;2024-01-10T03:28:45;4.40;;;2.80;;
15063;SDS011;7631;52.088;5.088;2024-01-10T03:31:11;3.73;;;3.00;;
15063;SDS011;7631;52.088;5.088;2024-01-10T03:33:36;4.50;;;2.40;;
15063;SDS011;7631;52.088;5.088;2024-01-10T03:36:02;4.33;;;2.87;;
15063;SDS011;7631;52.088;5.088;2024-01-10T03:38:27;4.10;;;2.83;;
15063;SDS011;7631;52.088;5.088;2024-01-10T03:40:53;4.20;;;2.77;;
15063;SDS011;7631;52.088;5.088;2024-01-10T03:43:18;4.63;;;3.00;;
15063;SDS011;7631;52.088;5.088;2024-01-10T03:45:43;4.30;;;2.93;;
15063;SDS011;7631;52.088;5.088;2024-01-10T03:48:09;3.67;;;2.77;;
15063;SDS011;7631;52.088;5.088;2024-01-10T03:50:34;5.23;;;2.87;;
15063;SDS011;7631;52.088;5.088;2024-01-10T03:52:59;4.67;;;3.33;;
15063;SDS011;7631;52.088;5.088;2024-01-10T03:55:24;4.47;;;2.80;;
15063;SDS011;7631;52.088;5.088;2024-01-10T03:57:49;5.00;;;2.97;;
15063;SDS011;7631;52.088;5.088;2024-01-10T04:00:15;4.33;;;2.87;;
15063;SDS011;7631;52.088;5.088;2024-01-10T04:02:40;4.90;;;3.03;;
15063;SDS011;7631;52.088;5.088;2024-01-10T04:05:08;3.73;;;2.70;;
15063;SDS011;7631;52.088;5.088;2024-01-10T04:07:39;5.33;;;2.80;;
15063;SDS011;7631;52.088;5.088;2024-01-10T04:10:04;4.67;;;3.00;;
15063;SDS011;7631;52.088;5.088;2024-01-10T04:12:32;3.37;;;2.53;;
15063;SDS011;7631;52.088;5.088;2024-01-10T04:14:57;5.00;;;2.93;;
15063;SDS011;7631;52.088;5.088;2024-01-10T04:17:22;3.90;;;2.73;;
15063;SDS011;7631;52.088;5.088;2024-01-10T04:19:47;4.73;;;3.27;;
15063;SDS011;7631;52.088;5.088;2024-01-10T04:22:13;4.87;;;2.77;;
15063;SDS011;7631;52.088;5.088;2024-01-10T04:24:38;3.87;;;2.53;;
15063;SDS011;7631;52.088;5.088;2024-01-10T04:27:03;6.00;;;2.80;;
15063;SDS011;7631;52.088;5.088;2024-01-10T04:29:29;4.23;;;3.23;;
15063;SDS011;7631;52.088;5.088;2024-01-10T04:31:55;4.23;;;2.90;;
15063;SDS011;7631;52.088;5.088;2024-01-10T04:34:20;4.63;;;3.07;;
15063;SDS011;7631;52.088;5.088;2024-01-10T04:36:47;3.77;;;2.60;;
15063;SDS011;7631;52.088;5.088;2024-01-10T04:39:13;5.07;;;3.07;;
15063;SDS011;7631;52.088;5.088;2024-01-10T04:41:38;3.90;;;2.40;;
15063;SDS011;7631;52.088;5.088;2024-01-10T04:44:04;4.30;;;2.80;;
15063;SDS011;7631;52.088;5.088;2024-01-10T04:46:29;4.97;;;3.30;;
15063;SDS011;7631;52.088;5.088;2024-01-10T04:48:55;4.47;;;3.43;;
15063;SDS011;7631;52.088;5.088;2024-01-10T04:51:20;4.67;;;2.80;;
15063;SDS011;7631;52.088;5.088;2024-01-10T04:53:45;4.73;;;3.20;;
15063;SDS011;7631;52.088;5.088;2024-01-10T04:56:10;4.60;;;3.17;;
15063;SDS011;7631;52.088;5.088;2024-01-10T04:58:36;3.57;;;2.80;;
15063;SDS011;7631;52.088;5.088;2024-01-10T05:01:01;5.63;;;3.13;;
15063;SDS011;7631;52.088;5.088;2024-01-10T05:03:27;5.37;;;3.57;;
15063;SDS011;7631;52.088;5.088;2024-01-10T05:05:52;4.93;;;3.50;;
15063;SDS011;7631;52.088;5.088;2024-01-10T05:08:17;4.60;;;3.13;;
15063;SDS011;7631;52.088;5.088;2024-01-10T05:10:45;4.27;;;3.23;;
15063;SDS011;7631;52.088;5.088;2024-01-10T05:13:10;4.80;;;3.03;;
15063;SDS011;7631;52.088;5.088;2024-01-10T05:15:35;5.00;;;2.90;;
15063;SDS011;7631;52.088;5.088;2024-01-10T05:18:01;4.67;;;3.27;;
15063;SDS011;7631;52.088;5.088;2024-01-10T05:20:26;5.03;;;3.43;;
15063;SDS011;7631;52.088;5.088;2024-01-10T05:22:51;5.00;;;3.23;;
15063;SDS011;7631;52.088;5.088;2024-01-10T05:25:16;4.77;;;3.40;;
15063;SDS011;7631;52.088;5.088;2024-01-10T05:27:43;3.93;;;2.90;;
15063;SDS011;7631;52.088;5.088;2024-01-10T05:30:08;4.23;;;2.70;;
15063;SDS011;7631;52.088;5.088;2024-01-10T05:32:34;6.77;;;3.27;;
15063;SDS011;7631;52.088;5.088;2024-01-10T05:34:59;4.73;;;3.30;;
15063;SDS011;7631;52.088;5.088;2024-01-10T05:37:24;5.90;;;3.33;;
15063;SDS011;7631;52.088;5.088;2024-01-10T05:39:49;4.50;;;3.20;;
15063;SDS011;7631;52.088;5.088;2024-01-10T05:42:14;4.50;;;3.37;;
15063;SDS011;7631;52.088;5.088;2024-01-10T05:44:40;5.37;;;3.33;;
15063;SDS011;7631;52.088;5.088;2024-01-10T05:47:05;3.50;;;2.83;;
15063;SDS011;7631;52.088;5.088;2024-01-10T05:49:30;4.00;;;2.90;;
15063;SDS011;7631;52.088;5.088;2024-01-10T05:51:56;5.10;;;3.33;;
15063;SDS011;7631;52.088;5.088;2024-01-10T05:54:21;4.97;;;3.23;;
15063;SDS011;7631;52.088;5.088;2024-01-10T05:56:47;5.67;;;3.80;;
15063;SDS011;7631;52.088;5.088;2024-01-10T05:59:13;4.97;;;3.33;;
15063;SDS011;7631;52.088;5.088;2024-01-10T06:01:38;5.13;;;3.37;;
15063;SDS011;7631;52.088;5.088;2024-01-10T06:04:04;5.17;;;3.20;;
15063;SDS011;7631;52.088;5.088;2024-01-10T06:06:30;5.60;;;3.60;;
15063;SDS011;7631;52.088;5.088;2024-01-10T06:08:57;5.43;;;3.67;;
15063;SDS011;7631;52.088;5.088;2024-01-10T06:11:22;5.00;;;3.20;;
15063;SDS011;7631;52.088;5.088;2024-01-10T06:13:47;5.63;;;3.30;;
15063;SDS011;7631;52.088;5.088;2024-01-10T06:16:12;5.33;;;3.33;;
15063;SDS011;7631;52.088;5.088;2024-01-10T06:18:38;6.57;;;3.73;;
15063;SDS011;7631;52.088;5.088;2024-01-10T06:21:03;5.60;;;3.77;;
15063;SDS011;7631;52.088;5.088;2024-01-10T06:23:29;6.37;;;3.87;;
15063;SDS011;7631;52.088;5.088;2024-01-10T06:25:54;4.43;;;3.30;;
15063;SDS011;7631;52.088;5.088;2024-01-10T06:28:20;5.37;;;3.67;;
15063;SDS011;7631;52.088;5.088;2024-01-10T06:30:45;4.67;;;3.50;;
15063;SDS011;7631;52.088;5.088;2024-01-10T06:33:10;6.00;;;3.53;;
15063;SDS011;7631;52.088;5.088;2024-01-10T06:35:35;6.53;;;3.63;;
15063;SDS011;7631;52.088;5.088;2024-01-10T06:38:01;8.27;;;3.80;;
15063;SDS011;7631;52.088;5.088;2024-01-10T06:40:28;4.70;;;3.50;;
15063;SDS011;7631;52.088;5.088;2024-01-10T06:42:54;6.63;;;3.77;;
15063;SDS011;7631;52.088;5.088;2024-01-10T06:45:20;5.23;;;3.23;;
15063;SDS011;7631;52.088;5.088;2024-01-10T06:47:45;6.67;;;3.70;;
15063;SDS011;7631;52.088;5.088;2024-01-10T06:50:10;5.10;;;3.17;;
15063;SDS011;7631;52.088;5.088;2024-01-10T06:52:36;4.53;;;3.57;;
15063;SDS011;7631;52.088;5.088;2024-01-10T06:55:02;5.43;;;3.43;;
15063;SDS011;7631;52.088;5.088;2024-01-10T06:57:29;5.77;;;3.60;;
15063;SDS011;7631;52.088;5.088;2024-01-10T06:59:54;5.43;;;3.70;;
15063;SDS011;7631;52.088;5.088;2024-01-10T07:02:19;6.67;;;3.73;;
15063;SDS011;7631;52.088;5.088;2024-01-10T07:04:44;4.80;;;3.60;;
15063;SDS011;7631;52.088;5.088;2024-01-10T07:07:13;5.10;;;3.53;;
15063;SDS011;7631;52.088;5.088;2024-01-10T07:09:38;4.90;;;3.70;;
15063;SDS011;7631;52.088;5.088;2024-01-10T07:12:05;5.93;;;4.10;;
15063;SDS011;7631;52.088;5.088;2024-01-10T07:14:31;5.70;;;3.37;;
15063;SDS011;7631;52.088;5.088;2024-01-10T07:16:56;5.87;;;3.97;;
15063;SDS011;7631;52.088;5.088;2024-01-10T07:19:22;6.20;;;3.93;;
15063;SDS011;7631;52.088;5.088;2024-01-10T07:21:49;7.30;;;4.33;;
15063;SDS011;7631;52.088;5.088;2024-01-10T07:24:14;6.23;;;3.93;;
15063;SDS011;7631;52.088;5.088;2024-01-10T07:26:40;4.77;;;3.27;;
15063;SDS011;7631;52.088;5.088;2024-01-10T07:29:05;6.00;;;4.10;;
15063;SDS011;7631;52.088;5.088;2024-01-10T07:31:33;6.17;;;4.20;;
15063;SDS011;7631;52.088;5.088;2024-01-10T07:33:58;6.23;;;3.93;;
15063;SDS011;7631;52.088;5.088;2024-01-10T07:36:24;5.87;;;3.67;;
15063;SDS011;7631;52.088;5.088;2024-01-10T07:38:51;5.57;;;4.00;;
15063;SDS011;7631;52.088;5.088;2024-01-10T07:41:16;7.37;;;4.20;;
15063;SDS011;7631;52.088;5.088;2024-01-10T07:43:42;7.17;;;4.80;;
15063;SDS011;7631;52.088;5.088;2024-01-10T07:46:08;5.57;;;3.67;;
15063;SDS011;7631;52.088;5.088;2024-01-10T07:48:34;5.70;;;3.97;;
15063;SDS011;7631;52.088;5.088;2024-01-10T07:51:00;6.00;;;3.70;;
15063;SDS011;7631;52.088;5.088;2024-01-10T07:53:25;7.23;;;3.93;;
15063;SDS011;7631;52.088;5.088;2024-01-10T07:55:51;6.63;;;4.10;;
15063;SDS011;7631;52.088;5.088;2024-01-10T07:58:17;3.83;;;2.97;;
15063;SDS011;7631;52.088;5.088;2024-01-10T08:00:42;5.43;;;3.83;;
15063;SDS011;7631;52.088;5.088;2024-01-10T08:03:08;6.47;;;3.93;;
15063;SDS011;7631;52.088;5.088;2024-01-10T08:05:35;6.87;;;3.90;;
15063;SDS011;7631;52.088;5.088;2024-01-10T08:08:00;6.33;;;3.73;;
15063;SDS011;7631;52.088;5.088;2024-01-10T08:10:25;5.73;;;3.80;;
15063;SDS011;7631;52.088;5.088;2024-01-10T08:12:52;6.53;;;3.73;;
15063;SDS011;7631;52.088;5.088;2024-01-10T08:15:17;6.60;;;3.93;;
15063;SDS011;7631;52.088;5.088;2024-01-10T08:17:44;6.93;;;3.87;;
15063;SDS011;7631;52.088;5.088;2024-01-10T08:20:09;6.27;;;3.80;;
15063;SDS011;7631;52.088;5.088;2024-01-10T08:22:35;5.87;;;3.80;;
15063;SDS011;7631;52.088;5.088;2024-01-10T08:25:01;6.60;;;4.07;;
15063;SDS011;7631;52.088;5.088;2024-01-10T08:27:26;5.83;;;4.07;;
15063;SDS011;7631;52.088;5.088;2024-01-10T08:29:51;7.23;;;3.70;;
15063;SDS011;7631;52.088;5.088;2024-01-10T08:32:16;5.50;;;3.43;;
15063;SDS011;7631;52.088;5.088;2024-01-10T08:34:43;7.63;;;3.97;;
15063;SDS011;7631;52.088;5.088;2024-01-10T08:37:09;6.10;;;4.13;;
15063;SDS011;7631;52.088;5.088;2024-01-10T08:39:35;6.03;;;3.77;;
15063;SDS011;7631;52.088;5.088;2024-01-10T08:42:00;5.03;;;3.63;;
15063;SDS011;7631;52.088;5.088;2024-01-10T08:44:25;5.80;;;3.60;;
15063;SDS011;7631;52.088;5.088;2024-01-10T08:46:50;7.07;;;4.67;;
15063;SDS011;7631;52.088;5.088;2024-01-10T08:49:16;5.40;;;3.80;;
15063;SDS011;7631;52.088;5.088;2024-01-10T08:51:41;7.70;;;4.73;;
15063;SDS011;7631;52.088;5.088;2024-01-10T08:54:08;6.03;;;3.73;;
15063;SDS011;7631;52.088;5.088;2024-01-10T08:56:34;5.87;;;3.87;;
15063;SDS011;7631;52.088;5.088;2024-01-10T08:58:59;6.27;;;3.60;;
15063;SDS011;7631;52.088;5.088;2024-01-10T09:01:26;6.53;;;4.00;;
15063;SDS011;7631;52.088;5.088;2024-01-10T09:03:51;5.37;;;4.00;;
15063;SDS011;7631;52.088;5.088;2024-01-10T09:06:16;5.57;;;3.53;;
15063;SDS011;7631;52.088;5.088;2024-01-10T09:08:42;5.87;;;4.03;;
15063;SDS011;7631;52.088;5.088;2024-01-10T09:11:07;6.47;;;3.60;;
15063;SDS011;7631;52.088;5.088;2024-01-10T09:13:32;5.87;;;3.90;;
15063;SDS011;7631;52.088;5.088;2024-01-10T09:15:59;6.97;;;4.10;;
15063;SDS011;7631;52.088;5.088;2024-01-10T09:18:24;5.57;;;3.80;;
15063;SDS011;7631;52.088;5.088;2024-01-10T09:20:49;5.27;;;3.73;;
15063;SDS011;7631;52.088;5.088;2024-01-10T09:23:15;4.63;;;3.60;;
15063;SDS011;7631;52.088;5.088;2024-01-10T09:25:40;5.60;;;3.83;;
15063;SDS011;7631;52.088;5.088;2024-01-10T09:28:06;6.80;;;4.13;;
15063;SDS011;7631;52.088;5.088;2024-01-10T09:30:31;5.93;;;4.10;;
15063;SDS011;7631;52.088;5.088;2024-01-10T09:32:56;5.10;;;3.40;;
15063;SDS011;7631;52.088;5.088;2024-01-10T09:35:22;6.20;;;3.80;;
15063;SDS011;7631;52.088;5.088;2024-01-10T09:37:47;4.67;;;3.47;;
15063;SDS011;7631;52.088;5.088;2024-01-10T09:40:14;5.43;;;3.63;;
15063;SDS011;7631;52.088;5.088;2024-01-10T09:42:39;5.67;;;3.93;;
15063;SDS011;7631;52.088;5.088;2024-01-10T09:45:04;5.63;;;3.90;;
15063;SDS011;7631;52.088;5.088;2024-01-10T09:47:30;6.40;;;3.83;;
15063;SDS011;7631;52.088;5.088;2024-01-10T09:49:57;6.40;;;3.87;;
15063;SDS011;7631;52.088;5.088;2024-01-10T09:52:26;5.87;;;3.67;;
15063;SDS011;7631;52.088;5.088;2024-01-10T09:54:55;6.77;;;4.47;;
15063;SDS011;7631;52.088;5.088;2024-01-10T09:57:24;6.73;;;4.27;;
15063;SDS011;7631;52.088;5.088;2024-01-10T09:59:50;5.30;;;3.57;;
15063;SDS011;7631;52.088;5.088;2024-01-10T10:02:22;4.97;;;3.40;;
15063;SDS011;7631;52.088;5.088;2024-01-10T10:04:56;6.83;;;3.80;;
15063;SDS011;7631;52.088;5.088;2024-01-10T10:07:25;5.47;;;3.67;;
15063;SDS011;7631;52.088;5.088;2024-01-10T10:09:51;5.63;;;3.80;;
15063;SDS011;7631;52.088;5.088;2024-01-10T10:12:18;4.43;;;3.27;;
15063;SDS011;7631;52.088;5.088;2024-01-10T10:14:43;5.93;;;3.67;;
15063;SDS011;7631;52.088;5.088;2024-01-10T10:17:15;6.27;;;3.60;;
15063;SDS011;7631;52.088;5.088;2024-01-10T10:19:40;5.83;;;3.47;;
15063;SDS011;7631;52.088;5.088;2024-01-10T10:22:09;7.03;;;3.90;;
15063;SDS011;7631;52.088;5.088;2024-01-10T10:24:34;6.47;;;3.63;;
15063;SDS011;7631;52.088;5.088;2024-01-10T10:27:00;6.27;;;4.00;;
15063;SDS011;7631;52.088;5.088;2024-01-10T10:29:25;6.30;;;4.00;;
15063;SDS011;7631;52.088;5.088;2024-01-10T10:31:51;7.97;;;4.43;;
15063;SDS011;7631;52.088;5.088;2024-01-10T10:34:20;5.83;;;3.63;;
15063;SDS011;7631;52.088;5.088;2024-01-10T10:36:46;6.17;;;4.20;;
15063;SDS011;7631;52.088;5.088;2024-01-10T10:39:15;6.87;;;4.30;;
15063;SDS011;7631;52.088;5.088;2024-01-10T10:41:40;6.37;;;3.93;;
15063;SDS011;7631;52.088;5.088;2024-01-10T10:44:06;7.70;;;3.97;;
15063;SDS011;7631;52.088;5.088;2024-01-10T10:46:34;6.10;;;3.90;;
15063;SDS011;7631;52.088;5.088;2024-01-10T10:49:00;7.00;;;4.43;;
15063;SDS011;7631;52.088;5.088;2024-01-10T10:51:33;7.37;;;4.27;;
15063;SDS011;7631;52.088;5.088;2024-01-10T10:53:58;7.83;;;4.30;;
15063;SDS011;7631;52.088;5.088;2024-01-10T10:56:24;6.40;;;4.40;;
15063;SDS011;7631;52.088;5.088;2024-01-10T10:58:51;7.87;;;4.80;;
15063;SDS011;7631;52.088;5.088;2024-01-10T11:01:17;5.53;;;3.83;;
15063;SDS011;7631;52.088;5.088;2024-01-10T11:03:43;6.67;;;3.90;;
15063;SDS011;7631;52.088;5.088;2024-01-10T11:06:09;7.43;;;4.27;;
15063;SDS011;7631;52.088;5.088;2024-01-10T11:08:36;6.20;;;4.10;;
15063;SDS011;7631;52.088;5.088;2024-01-10T11:11:02;6.27;;;4.37;;
15063;SDS011;7631;52.088;5.088;2024-01-10T11:13:38;5.90;;;4.20;;
15063;SDS011;7631;52.088;5.088;2024-01-10T11:18:58;5.57;;;3.83;;
15063;SDS011;7631;52.088;5.088;2024-01-10T11:23:59;7.80;;;4.63;;
15063;SDS011;7631;52.088;5.088;2024-01-10T11:26:24;6.73;;;4.43;;
15063;SDS011;7631;52.088;5.088;2024-01-10T11:28:50;6.97;;;4.60;;
15063;SDS011;7631;52.088;5.088;2024-01-10T11:31:16;5.90;;;3.60;;
15063;SDS011;7631;52.088;5.088;2024-01-10T11:33:51;8.67;;;4.97;;
15063;SDS011;7631;52.088;5.088;2024-01-10T11:36:18;6.37;;;4.57;;
15063;SDS011;7631;52.088;5.088;2024-01-10T11:41:13;5.73;;;4.20;;
15063;SDS011;7631;52.088;5.088;2024-01-10T11:43:40;7.53;;;4.87;;
15063;SDS011;7631;52.088;5.088;2024-01-10T11:46:05;9.10;;;5.23;;
15063;SDS011;7631;52.088;5.088;2024-01-10T11:48:30;7.03;;;4.80;;
15063;SDS011;7631;52.088;5.088;2024-01-10T11:50:57;6.27;;;4.50;;
15063;SDS011;7631;52.088;5.088;2024-01-10T11:53:38;6.20;;;4.33;;
15063;SDS011;7631;52.088;5.088;2024-01-10T11:56:11;7.40;;;4.80;;
15063;SDS011;7631;52.088;5.088;2024-01-10T12:01:21;7.07;;;4.37;;
15063;SDS011;7631;52.088;5.088;2024-01-10T12:03:47;6.67;;;4.40;;
15063;SDS011;7631;52.088;5.088;2024-01-10T12:06:13;7.67;;;4.50;;
15063;SDS011;7631;52.088;5.088;2024-01-10T12:08:39;8.17;;;5.27;;
15063;SDS011;7631;52.088;5.088;2024-01-10T12:11:04;7.73;;;4.80;;
15063;SDS011;7631;52.088;5.088;2024-01-10T12:13:30;7.53;;;4.33;;
15063;SDS011;7631;52.088;5.088;2024-01-10T12:15:56;6.53;;;4.30;;
15063;SDS011;7631;52.088;5.088;2024-01-10T12:18:21;7.30;;;4.20;;
15063;SDS011;7631;52.088;5.088;2024-01-10T12:20:46;8.57;;;4.60;;
15063;SDS011;7631;52.088;5.088;2024-01-10T12:23:12;6.70;;;5.43;;
15063;SDS011;7631;52.088;5.088;2024-01-10T12:25:37;6.63;;;4.50;;
15063;SDS011;7631;52.088;5.088;2024-01-10T12:28:02;7.23;;;4.47;;
15063;SDS011;7631;52.088;5.088;2024-01-10T12:30:28;6.00;;;4.50;;
15063;SDS011;7631;52.088;5.088;2024-01-10T12:32:53;7.27;;;4.60;;
15063;SDS011;7631;52.088;5.088;2024-01-10T12:35:18;6.17;;;4.30;;
15063;SDS011;7631;52.088;5.088;2024-01-10T12:37:54;8.23;;;5.13;;
15063;SDS011;7631;52.088;5.088;2024-01-10T12:40:22;6.10;;;4.43;;
15063;SDS011;7631;52.088;5.088;2024-01-10T12:42:47;7.90;;;5.07;;
15063;SDS011;7631;52.088;5.088;2024-01-10T12:45:22;7.80;;;5.10;;
15063;SDS011;7631;52.088;5.088;2024-01-10T12:47:47;6.93;;;4.17;;
15063;SDS011;7631;52.088;5.088;2024-01-10T12:50:13;7.50;;;4.60;;
15063;SDS011;7631;52.088;5.088;2024-01-10T12:52:38;8.20;;;5.07;;
15063;SDS011;7631;52.088;5.088;2024-01-10T12:55:05;6.37;;;4.30;;
15063;SDS011;7631;52.088;5.088;2024-01-10T12:57:30;6.90;;;4.60;;
15063;SDS011;7631;52.088;5.088;2024-01-10T12:59:56;6.87;;;4.60;;
15063;SDS011;7631;52.088;5.088;2024-01-10T13:02:21;7.60;;;4.87;;
15063;SDS011;7631;52.088;5.088;2024-01-10T13:04:46;7.77;;;5.27;;
15063;SDS011;7631;52.088;5.088;2024-01-10T13:07:11;6.63;;;4.43;;
15063;SDS011;7631;52.088;5.088;2024-01-10T13:09:37;6.77;;;4.77;;
15063;SDS011;7631;52.088;5.088;2024-01-10T13:12:02;6.10;;;3.93;;
15063;SDS011;7631;52.088;5.088;2024-01-10T13:14:28;8.30;;;4.90;;
15063;SDS011;7631;52.088;5.088;2024-01-10T13:16:56;8.07;;;4.90;;
15063;SDS011;7631;52.088;5.088;2024-01-10T13:19:21;7.10;;;4.67;;
15063;SDS011;7631;52.088;5.088;2024-01-10T13:21:46;7.80;;;4.80;;
15063;SDS011;7631;52.088;5.088;2024-01-10T13:24:11;7.70;;;4.70;;
15063;SDS011;7631;52.088;5.088;2024-01-10T13:26:37;7.20;;;4.43;;
15063;SDS011;7631;52.088;5.088;2024-01-10T13:29:02;6.10;;;4.40;;
15063;SDS011;7631;52.088;5.088;2024-01-10T13:31:27;7.73;;;5.00;;
15063;SDS011;7631;52.088;5.088;2024-01-10T13:33:53;6.90;;;4.30;;
15063;SDS011;7631;52.088;5.088;2024-01-10T13:36:19;5.77;;;4.03;;
15063;SDS011;7631;52.088;5.088;2024-01-10T13:38:44;8.20;;;5.00;;
15063;SDS011;7631;52.088;5.088;2024-01-10T13:41:10;6.23;;;4.47;;
15063;SDS011;7631;52.088;5.088;2024-01-10T13:43:35;7.30;;;5.00;;
15063;SDS011;7631;52.088;5.088;2024-01-10T13:46:00;8.20;;;5.30;;
15063;SDS011;7631;52.088;5.088;2024-01-10T13:48:26;7.43;;;4.60;;
15063;SDS011;7631;52.088;5.088;2024-01-10T13:50:51;7.63;;;4.77;;
15063;SDS011;7631;52.088;5.088;2024-01-10T13:53:17;6.47;;;4.57;;
15063;SDS011;7631;52.088;5.088;2024-01-10T13:55:42;7.53;;;4.60;;
15063;SDS011;7631;52.088;5.088;2024-01-10T13:58:07;7.20;;;4.50;;
15063;SDS011;7631;52.088;5.088;2024-01-10T14:00:33;5.93;;;4.50;;
15063;SDS011;7631;52.088;5.088;2024-01-10T14:02:58;8.30;;;5.00;;
15063;SDS011;7631;52.088;5.088;2024-01-10T14:05:26;6.80;;;4.77;;
15063;SDS011;7631;52.088;5.088;2024-01-10T14:07:52;5.50;;;4.40;;
15063;SDS011;7631;52.088;5.088;2024-01-10T14:10:17;9.33;;;5.40;;
15063;SDS011;7631;52.088;5.088;2024-01-10T14:12:44;8.07;;;4.43;;
15063;SDS011;7631;52.088;5.088;2024-01-10T14:15:09;5.83;;;4.13;;
15063;SDS011;7631;52.088;5.088;2024-01-10T14:17:34;7.03;;;4.70;;
15063;SDS011;7631;52.088;5.088;2024-01-10T14:20:00;7.80;;;4.57;;
15063;SDS011;7631;52.088;5.088;2024-01-10T14:22:25;6.80;;;4.57;;
15063;SDS011;7631;52.088;5.088;2024-01-10T14:24:51;6.93;;;4.63;;
15063;SDS011;7631;52.088;5.088;2024-01-10T14:27:16;6.17;;;4.77;;
15063;SDS011;7631;52.088;5.088;2024-01-10T14:29:42;7.37;;;4.97;;
15063;SDS011;7631;52.088;5.088;2024-01-10T14:32:07;6.23;;;4.50;;
15063;SDS011;7631;52.088;5.088;2024-01-10T14:34:32;7.47;;;5.07;;
15063;SDS011;7631;52.088;5.088;2024-01-10T14:36:57;8.00;;;5.00;;
15063;SDS011;7631;52.088;5.088;2024-01-10T14:39:23;7.60;;;4.87;;
15063;SDS011;7631;52.088;5.088;2024-01-10T14:41:49;7.03;;;4.40;;
15063;SDS011;7631;52.088;5.088;2024-01-10T14:44:14;6.93;;;4.37;;
15063;SDS011;7631;52.088;5.088;2024-01-10T14:46:40;5.80;;;4.03;;
15063;SDS011;7631;52.088;5.088;2024-01-10T14:49:05;6.87;;;4.47;;
15063;SDS011;7631;52.088;5.088;2024-01-10T14:51:31;6.93;;;4.90;;
15063;SDS011;7631;52.088;5.088;2024-01-10T14:53:56;7.30;;;4.53;;
15063;SDS011;7631;52.088;5.088;2024-01-10T14:56:21;7.30;;;4.90;;
15063;SDS011;7631;52.088;5.088;2024-01-10T14:58:49;6.77;;;4.50;;
15063;SDS011;7631;52.088;5.088;2024-01-10T15:01:15;6.87;;;4.60;;